createdAt,value
2023-05-14T00:01:20.843Z,2.90
2023-05-14T00:03:47.552Z,3.15
2023-05-14T00:06:15.318Z,3.10
2023-05-14T00:08:41.866Z,2.80
2023-05-14T00:11:09.129Z,2.63
2023-05-14T00:13:36.243Z,2.90
2023-05-14T00:16:02.831Z,3.05
2023-05-14T00:18:29.387Z,3.17
2023-05-14T00:20:56.004Z,2.70
2023-05-14T00:23:23.035Z,2.97
2023-05-14T00:25:57.196Z,3.28
2023-05-14T00:28:23.722Z,2.75
2023-05-14T00:30:51.039Z,2.80
2023-05-14T00:33:17.632Z,2.80
2023-05-14T00:35:44.179Z,2.60
2023-05-14T00:38:16.878Z,2.85
2023-05-14T00:40:50.984Z,2.55
2023-05-14T00:43:19.313Z,2.80
2023-05-14T00:45:46.104Z,2.58
2023-05-14T00:48:12.977Z,2.90
2023-05-14T00:50:39.602Z,2.83
2023-05-14T00:53:10.264Z,2.55
2023-05-14T00:55:40.545Z,2.70
2023-05-14T00:58:10.884Z,2.67
2023-05-14T01:00:38.625Z,2.78
2023-05-14T01:03:06.545Z,3.17
2023-05-14T01:05:51.217Z,2.60
2023-05-14T01:08:50.906Z,2.95
2023-05-14T01:11:26.262Z,2.70
2023-05-14T01:14:01.554Z,2.88
2023-05-14T01:16:28.537Z,2.55
2023-05-14T01:18:57.009Z,2.47
2023-05-14T01:21:34.838Z,2.85
2023-05-14T01:24:04.096Z,2.83
2023-05-14T01:26:31.749Z,2.50
2023-05-14T01:29:04.507Z,2.58
2023-05-14T01:31:32.324Z,2.55
2023-05-14T01:34:00.221Z,2.88
2023-05-14T01:36:27.972Z,2.42
2023-05-14T01:38:55.445Z,2.83
2023-05-14T01:41:22.760Z,2.70
2023-05-14T01:43:49.469Z,2.50
2023-05-14T01:46:19.044Z,2.80
2023-05-14T01:48:47.349Z,2.80
2023-05-14T01:51:14.760Z,2.45
2023-05-14T01:53:41.340Z,2.45
2023-05-14T01:56:07.891Z,2.65
2023-05-14T01:58:34.499Z,2.47
2023-05-14T02:01:01.114Z,2.60
2023-05-14T02:03:27.748Z,2.60
2023-05-14T02:05:54.284Z,2.65
2023-05-14T02:08:21.211Z,2.33
2023-05-14T02:10:47.817Z,2.33
2023-05-14T02:13:14.398Z,2.60
2023-05-14T02:15:41.073Z,2.78
2023-05-14T02:18:07.743Z,2.15
2023-05-14T02:20:34.413Z,2.80
2023-05-14T02:23:02.738Z,2.80
2023-05-14T02:25:29.360Z,2.35
2023-05-14T02:27:56.675Z,2.47
2023-05-14T02:30:23.350Z,2.50
2023-05-14T02:32:50.246Z,2.15
2023-05-14T02:35:20.755Z,2.42
2023-05-14T02:37:47.290Z,2.17
2023-05-14T02:40:13.850Z,2.65
2023-05-14T02:42:40.459Z,2.58
2023-05-14T02:45:07.344Z,2.10
2023-05-14T02:47:36.114Z,2.25
2023-05-14T02:50:06.334Z,2.25
2023-05-14T02:52:32.894Z,2.13
2023-05-14T02:54:59.475Z,2.40
2023-05-14T02:57:26.056Z,2.30
2023-05-14T02:59:52.623Z,2.20
2023-05-14T03:02:19.653Z,2.35
2023-05-14T03:04:46.806Z,2.10
2023-05-14T03:07:13.671Z,2.40
2023-05-14T03:09:41.766Z,2.10
2023-05-14T03:12:08.431Z,2.25
2023-05-14T03:14:34.998Z,2.00
2023-05-14T03:17:01.586Z,2.30
2023-05-14T03:19:28.199Z,2.13
2023-05-14T03:21:55.558Z,2.45
2023-05-14T03:24:24.429Z,1.98
2023-05-14T03:26:53.473Z,2.30
2023-05-14T03:29:20.022Z,2.20
2023-05-14T03:31:46.717Z,2.10
2023-05-14T03:34:14.861Z,1.95
2023-05-14T03:36:41.502Z,2.40
2023-05-14T03:39:09.509Z,2.10
2023-05-14T03:41:36.356Z,2.60
2023-05-14T03:44:02.976Z,2.00
2023-05-14T03:46:29.538Z,1.75
2023-05-14T03:48:56.191Z,2.20
2023-05-14T03:51:22.802Z,2.40
2023-05-14T03:53:49.358Z,2.00
2023-05-14T03:56:16.059Z,2.20
2023-05-14T03:58:45.079Z,1.88
2023-05-14T04:01:11.658Z,1.90
2023-05-14T04:03:38.334Z,2.05
2023-05-14T04:06:05.204Z,2.00
2023-05-14T04:08:31.819Z,2.17
2023-05-14T04:10:58.425Z,2.30
2023-05-14T04:13:25.011Z,2.28
2023-05-14T04:15:51.613Z,1.90
2023-05-14T04:18:18.316Z,2.55
2023-05-14T04:20:45.101Z,2.00
2023-05-14T04:23:14.666Z,2.40
2023-05-14T04:25:43.587Z,1.77
2023-05-14T04:28:10.229Z,2.08
2023-05-14T04:30:36.779Z,1.85
2023-05-14T04:33:04.058Z,2.00
2023-05-14T04:35:30.771Z,1.98
2023-05-14T04:37:57.300Z,2.13
2023-05-14T04:40:24.120Z,2.05
2023-05-14T04:42:51.051Z,1.70
2023-05-14T04:45:17.695Z,1.90
2023-05-14T04:47:45.108Z,1.85
2023-05-14T04:50:12.028Z,1.60
2023-05-14T04:52:38.961Z,1.77
2023-05-14T04:55:06.148Z,1.80
2023-05-14T04:57:32.695Z,1.73
2023-05-14T04:59:59.245Z,1.75
2023-05-14T05:02:25.933Z,1.92
2023-05-14T05:04:57.026Z,1.88
2023-05-14T05:07:23.641Z,1.80
2023-05-14T05:09:50.196Z,2.35
2023-05-14T05:12:16.755Z,2.05
2023-05-14T05:14:43.305Z,2.03
2023-05-14T05:17:11.417Z,1.70
2023-05-14T05:19:43.741Z,1.88
2023-05-14T05:22:11.347Z,1.90
2023-05-14T05:24:42.569Z,1.63
2023-05-14T05:27:09.090Z,2.00
2023-05-14T05:29:35.677Z,1.60
2023-05-14T05:32:02.275Z,2.05
2023-05-14T05:34:28.867Z,1.98
2023-05-14T05:36:55.432Z,1.85
2023-05-14T05:39:21.991Z,1.80
2023-05-14T05:41:48.557Z,1.77
2023-05-14T05:44:19.356Z,1.95
2023-05-14T05:46:46.078Z,2.03
2023-05-14T05:49:12.910Z,2.53
2023-05-14T05:51:39.486Z,1.85
2023-05-14T05:54:06.120Z,2.20
2023-05-14T05:56:32.774Z,2.08
2023-05-14T05:58:59.342Z,2.60
2023-05-14T06:01:26.727Z,2.15
2023-05-14T06:03:53.369Z,2.10
2023-05-14T06:06:19.971Z,2.38
2023-05-14T06:08:46.531Z,2.17
2023-05-14T06:11:13.161Z,2.00
2023-05-14T06:13:39.694Z,2.30
2023-05-14T06:16:06.379Z,2.38
2023-05-14T06:18:36.919Z,2.20
2023-05-14T06:21:03.557Z,2.22
2023-05-14T06:23:33.300Z,2.22
2023-05-14T06:25:59.864Z,2.13
2023-05-14T06:28:26.581Z,1.70
2023-05-14T06:30:56.234Z,2.10
2023-05-14T06:33:29.746Z,2.20
2023-05-14T06:35:58.676Z,2.47
2023-05-14T06:38:25.735Z,2.55
2023-05-14T06:40:53.235Z,2.30
2023-05-14T06:43:19.802Z,2.20
2023-05-14T06:45:49.742Z,2.00
2023-05-14T06:48:18.692Z,2.28
2023-05-14T06:50:46.971Z,2.22
2023-05-14T06:53:13.943Z,1.92
2023-05-14T06:55:40.511Z,2.05
2023-05-14T06:58:07.672Z,1.92
2023-05-14T07:00:34.208Z,2.25
2023-05-14T07:03:02.483Z,1.90
2023-05-14T07:05:29.119Z,2.10
2023-05-14T07:07:55.829Z,2.22
2023-05-14T07:10:22.768Z,2.20
2023-05-14T07:12:49.672Z,2.40
2023-05-14T07:15:19.252Z,2.28
2023-05-14T07:17:45.986Z,2.15
2023-05-14T07:20:12.989Z,2.22
2023-05-14T07:22:40.382Z,2.20
2023-05-14T07:25:07.818Z,2.30
2023-05-14T07:27:34.370Z,2.30
2023-05-14T07:30:00.911Z,2.00
2023-05-14T07:32:27.526Z,2.72
2023-05-14T07:34:59.450Z,2.58
2023-05-14T07:37:26.129Z,2.53
2023-05-14T07:39:53.465Z,2.42
2023-05-14T07:42:31.682Z,2.33
2023-05-14T07:45:01.586Z,2.40
2023-05-14T07:47:28.221Z,2.92
2023-05-14T07:49:56.340Z,2.65
2023-05-14T07:52:23.517Z,2.55
2023-05-14T07:54:51.627Z,3.05
2023-05-14T07:57:23.746Z,2.80
2023-05-14T07:59:50.401Z,2.65
2023-05-14T08:02:17.703Z,2.97
2023-05-14T08:04:45.107Z,3.17
2023-05-14T08:07:11.816Z,3.17
2023-05-14T08:09:40.706Z,2.90
2023-05-14T08:12:07.632Z,2.42
2023-05-14T08:14:34.490Z,3.25
2023-05-14T08:17:01.127Z,2.83
2023-05-14T08:19:27.877Z,2.80
2023-05-14T08:21:55.293Z,2.55
2023-05-14T08:24:23.476Z,2.92
2023-05-14T08:26:50.243Z,2.80
2023-05-14T08:29:19.853Z,2.78
2023-05-14T08:31:46.482Z,2.90
2023-05-14T08:34:13.133Z,2.45
2023-05-14T08:36:39.709Z,2.60
2023-05-14T08:39:07.778Z,2.60
2023-05-14T08:41:34.825Z,2.70
2023-05-14T08:44:12.700Z,3.13
2023-05-14T08:46:40.064Z,2.85
2023-05-14T08:49:19.948Z,2.95
2023-05-14T08:51:49.593Z,2.65
2023-05-14T08:54:17.827Z,3.00
2023-05-14T08:56:46.306Z,3.08
2023-05-14T08:59:13.493Z,2.75
2023-05-14T09:01:46.412Z,2.70
2023-05-14T09:04:13.434Z,2.60
2023-05-14T09:06:40.422Z,2.50
2023-05-14T09:09:07.243Z,2.78
2023-05-14T09:11:33.811Z,2.67
2023-05-14T09:14:00.419Z,2.83
2023-05-14T09:16:27.111Z,3.28
2023-05-14T09:18:54.151Z,2.70
2023-05-14T09:21:20.788Z,2.88
2023-05-14T09:23:49.692Z,2.60
2023-05-14T09:26:19.354Z,2.70
2023-05-14T09:28:46.418Z,3.05
2023-05-14T09:31:13.470Z,2.92
2023-05-14T09:33:40.094Z,2.83
2023-05-14T09:36:11.836Z,3.25
2023-05-14T09:38:39.204Z,3.00
2023-05-14T09:41:05.835Z,3.00
2023-05-14T09:43:32.433Z,3.22
2023-05-14T09:45:58.966Z,3.00
2023-05-14T09:48:26.312Z,3.20
2023-05-14T09:50:52.955Z,2.92
2023-05-14T09:53:19.658Z,2.72
2023-05-14T09:55:46.295Z,3.28
2023-05-14T09:58:16.014Z,2.78
2023-05-14T10:00:46.846Z,3.17
2023-05-14T10:03:16.512Z,2.50
2023-05-14T10:05:45.093Z,2.75
2023-05-14T10:08:20.323Z,2.92
2023-05-14T10:10:46.891Z,2.90
2023-05-14T10:13:21.355Z,2.92
2023-05-14T10:15:59.692Z,2.67
2023-05-14T10:18:28.568Z,2.80
2023-05-14T10:21:05.194Z,3.15
2023-05-14T10:23:38.051Z,2.78
2023-05-14T10:26:05.260Z,3.10
2023-05-14T10:28:34.516Z,3.13
2023-05-14T10:31:01.345Z,2.72
2023-05-14T10:33:28.001Z,2.65
2023-05-14T10:36:06.640Z,3.05
2023-05-14T10:38:35.700Z,3.00
2023-05-14T10:41:03.433Z,2.88
2023-05-14T10:43:31.135Z,3.25
2023-05-14T10:45:58.854Z,2.92
2023-05-14T10:48:25.980Z,3.03
2023-05-14T10:50:53.299Z,2.97
2023-05-14T10:53:20.367Z,3.08
2023-05-14T10:55:47.255Z,3.22
2023-05-14T10:58:15.040Z,3.17
2023-05-14T11:00:41.646Z,3.10
2023-05-14T11:03:08.505Z,3.03
2023-05-14T11:05:37.286Z,3.17
2023-05-14T11:08:07.700Z,2.70
2023-05-14T11:10:35.580Z,3.03
2023-05-14T11:13:02.692Z,2.78
2023-05-14T11:15:29.397Z,3.45
2023-05-14T11:17:56.087Z,2.75
2023-05-14T11:20:22.982Z,3.00
2023-05-14T11:22:55.356Z,3.05
2023-05-14T11:25:22.858Z,3.50
2023-05-14T11:27:50.180Z,3.95
2023-05-14T11:30:20.681Z,3.00
2023-05-14T11:32:48.554Z,3.15
2023-05-14T11:35:15.803Z,2.95
2023-05-14T11:37:43.134Z,3.15
2023-05-14T11:40:16.268Z,2.83
2023-05-14T11:42:42.903Z,3.10
2023-05-14T11:45:13.585Z,2.60
2023-05-14T11:47:41.502Z,3.15
2023-05-14T11:50:09.658Z,2.63
2023-05-14T11:52:40.991Z,3.00
2023-05-14T11:55:12.242Z,2.78
2023-05-14T11:57:38.821Z,2.70
2023-05-14T12:00:09.139Z,2.90
2023-05-14T12:02:36.480Z,2.63
2023-05-14T12:05:03.311Z,2.50
2023-05-14T12:07:30.788Z,2.80
2023-05-14T12:10:01.327Z,2.75
2023-05-14T12:12:27.902Z,3.05
2023-05-14T12:14:54.473Z,2.45
2023-05-14T12:17:22.404Z,2.70
2023-05-14T12:19:50.800Z,2.60
2023-05-14T12:22:19.819Z,2.60
2023-05-14T12:24:57.889Z,2.42
2023-05-14T12:27:26.441Z,2.38
2023-05-14T12:32:41.186Z,2.47
2023-05-14T12:35:08.633Z,2.72
2023-05-14T12:37:37.253Z,2.72
2023-05-14T12:40:08.978Z,2.90
2023-05-14T12:42:35.963Z,2.58
2023-05-14T12:45:05.573Z,2.65
2023-05-14T12:47:32.465Z,2.50
2023-05-14T12:49:59.102Z,2.75
2023-05-14T12:52:37.692Z,2.67
2023-05-14T12:55:09.649Z,2.60
2023-05-14T12:57:38.242Z,3.10
2023-05-14T13:00:07.233Z,2.60
2023-05-14T13:02:42.598Z,2.88
2023-05-14T13:05:09.826Z,2.60
2023-05-14T13:07:36.581Z,2.85
2023-05-14T13:10:05.652Z,3.30
2023-05-14T13:12:32.433Z,2.70
2023-05-14T13:15:00.744Z,3.53
2023-05-14T13:17:27.576Z,3.20
2023-05-14T13:19:54.235Z,3.28
2023-05-14T13:22:20.833Z,3.17
2023-05-14T13:24:49.686Z,2.63
2023-05-14T13:27:16.271Z,2.83
2023-05-14T13:29:42.837Z,3.05
2023-05-14T13:32:09.471Z,3.10
2023-05-14T13:34:36.314Z,3.22
2023-05-14T13:37:04.514Z,3.00
2023-05-14T13:39:31.092Z,3.08
2023-05-14T13:41:57.880Z,2.88
2023-05-14T13:44:24.608Z,3.13
2023-05-14T13:46:51.286Z,3.10
2023-05-14T13:49:17.966Z,3.20
2023-05-14T13:51:44.859Z,2.88
2023-05-14T13:54:11.684Z,3.20
2023-05-14T13:56:39.804Z,2.95
2023-05-14T13:59:06.473Z,3.03
2023-05-14T14:01:33.197Z,2.70
2023-05-14T14:04:00.311Z,3.13
2023-05-14T14:06:29.992Z,2.80
2023-05-14T14:08:56.608Z,3.10
2023-05-14T14:11:23.471Z,3.15
2023-05-14T14:13:50.042Z,3.33
2023-05-14T14:16:16.608Z,3.30
2023-05-14T14:18:43.610Z,3.20
2023-05-14T14:21:10.450Z,3.05
2023-05-14T14:23:41.620Z,3.20
2023-05-14T14:26:11.249Z,3.30
2023-05-14T14:28:37.846Z,3.10
2023-05-14T14:31:04.978Z,3.45
2023-05-14T14:33:31.682Z,3.38
2023-05-14T14:35:58.252Z,3.53
2023-05-14T14:38:25.071Z,3.58
2023-05-14T14:40:51.885Z,3.47
2023-05-14T14:43:18.683Z,3.30
2023-05-14T14:45:48.182Z,3.35
2023-05-14T14:48:34.145Z,3.22
2023-05-14T14:51:03.796Z,3.15
2023-05-14T14:53:30.845Z,3.08
2023-05-14T14:55:57.664Z,3.35
2023-05-14T14:58:24.537Z,3.67
2023-05-14T15:03:19.572Z,3.00
2023-05-14T15:05:46.254Z,4.10
2023-05-14T15:08:13.028Z,3.38
2023-05-14T15:10:41.171Z,3.42
2023-05-14T15:13:08.561Z,3.53
2023-05-14T15:15:35.999Z,3.38
2023-05-14T15:18:03.375Z,3.15
2023-05-14T15:20:30.146Z,3.60
2023-05-14T15:22:59.079Z,3.60
2023-05-14T15:25:27.089Z,3.70
2023-05-14T15:27:53.718Z,2.90
2023-05-14T15:30:20.641Z,3.42
2023-05-14T15:32:47.245Z,3.00
2023-05-14T15:35:13.879Z,3.17
2023-05-14T15:37:43.108Z,3.47
2023-05-14T15:40:13.202Z,3.17
2023-05-14T15:42:44.419Z,3.30
2023-05-14T15:45:12.641Z,3.70
2023-05-14T15:47:40.336Z,3.20
2023-05-14T15:50:07.834Z,3.40
2023-05-14T15:52:35.861Z,4.05
2023-05-14T15:55:06.006Z,3.80
2023-05-14T15:57:35.341Z,3.60
2023-05-14T16:00:06.083Z,3.47
2023-05-14T16:02:33.355Z,4.07
2023-05-14T16:05:00.187Z,3.30
2023-05-14T16:07:26.871Z,2.85
2023-05-14T16:09:53.529Z,3.35
2023-05-14T16:12:20.109Z,3.25
2023-05-14T16:14:46.684Z,3.30
2023-05-14T16:17:13.252Z,3.35
2023-05-14T16:19:39.827Z,3.40
2023-05-14T16:22:06.564Z,3.92
2023-05-14T16:24:37.094Z,3.92
2023-05-14T16:27:03.939Z,4.22
2023-05-14T16:29:31.222Z,3.95
2023-05-14T16:31:58.433Z,4.40
2023-05-14T16:34:25.238Z,4.15
2023-05-14T16:36:54.077Z,4.50
2023-05-14T16:39:20.740Z,4.50
2023-05-14T16:41:47.284Z,4.63
2023-05-14T16:44:13.857Z,4.88
2023-05-14T16:46:40.496Z,4.00
2023-05-14T16:49:07.111Z,3.75
2023-05-14T16:51:33.707Z,3.53
2023-05-14T16:54:00.596Z,3.78
2023-05-14T16:56:27.123Z,3.60
2023-05-14T16:58:53.804Z,3.50
2023-05-14T17:01:20.651Z,3.60
2023-05-14T17:03:47.372Z,3.80
2023-05-14T17:06:13.940Z,3.85
2023-05-14T17:08:40.737Z,3.65
2023-05-14T17:11:07.424Z,3.85
2023-05-14T17:13:34.079Z,3.80
2023-05-14T17:16:01.196Z,3.50
2023-05-14T17:18:29.821Z,3.60
2023-05-14T17:20:56.610Z,3.60
2023-05-14T17:23:24.083Z,3.60
2023-05-14T17:25:50.778Z,3.45
2023-05-14T17:28:17.465Z,3.90
2023-05-14T17:30:44.087Z,3.60
2023-05-14T17:33:14.196Z,3.75
2023-05-14T17:35:40.900Z,3.70
2023-05-14T17:38:07.480Z,3.80
2023-05-14T17:40:40.678Z,3.67
2023-05-14T17:45:46.355Z,4.05
2023-05-14T17:48:20.294Z,3.55
2023-05-14T17:50:46.886Z,3.60
2023-05-14T17:53:13.677Z,3.55
2023-05-14T17:55:43.493Z,3.97
2023-05-14T17:58:15.314Z,3.67
2023-05-14T18:00:42.496Z,3.60
2023-05-14T18:03:09.420Z,3.38
2023-05-14T18:05:36.297Z,3.63
2023-05-14T18:08:03.299Z,3.85
2023-05-14T18:10:29.980Z,4.03
2023-05-14T18:12:56.759Z,3.65
2023-05-14T18:15:25.844Z,3.85
2023-05-14T18:17:52.989Z,3.63
2023-05-14T18:20:19.991Z,4.07
2023-05-14T18:22:53.034Z,3.70
2023-05-14T18:25:19.680Z,3.67
2023-05-14T18:27:46.965Z,3.72
2023-05-14T18:30:14.722Z,3.88
2023-05-14T18:32:43.587Z,3.58
2023-05-14T18:35:14.705Z,4.07
2023-05-14T18:37:41.354Z,3.67
2023-05-14T18:40:08.751Z,4.18
2023-05-14T18:42:35.362Z,3.75
2023-05-14T18:45:02.297Z,3.50
2023-05-14T18:47:28.933Z,3.95
2023-05-14T18:49:59.466Z,3.25
2023-05-14T18:52:26.681Z,3.33
2023-05-14T18:54:54.658Z,4.28
2023-05-14T18:57:21.714Z,4.07
2023-05-14T18:59:48.519Z,4.25
2023-05-14T19:02:17.378Z,3.80
2023-05-14T19:04:52.487Z,3.58
2023-05-14T19:07:20.344Z,3.80
2023-05-14T19:09:49.064Z,3.72
2023-05-14T19:12:18.481Z,3.90
2023-05-14T19:14:51.104Z,4.18
2023-05-14T19:17:19.209Z,4.13
2023-05-14T19:19:47.370Z,4.40
2023-05-14T19:22:13.983Z,4.25
2023-05-14T19:24:44.647Z,4.80
2023-05-14T19:27:16.160Z,4.30
2023-05-14T19:29:43.194Z,4.70
2023-05-14T19:32:09.829Z,4.10
2023-05-14T19:34:36.402Z,4.18
2023-05-14T19:37:03.151Z,4.28
2023-05-14T19:39:29.751Z,4.50
2023-05-14T19:41:56.353Z,4.00
2023-05-14T19:44:22.909Z,4.00
2023-05-14T19:46:50.251Z,4.57
2023-05-14T19:49:16.855Z,4.13
2023-05-14T19:51:43.417Z,4.00
2023-05-14T19:54:09.985Z,4.25
2023-05-14T19:56:36.641Z,4.10
2023-05-14T19:59:03.256Z,4.55
2023-05-14T20:01:29.806Z,4.30
2023-05-14T20:03:56.357Z,4.10
2023-05-14T20:06:22.918Z,4.07
2023-05-14T20:08:51.291Z,4.30
2023-05-14T20:11:20.284Z,3.95
2023-05-14T20:13:46.902Z,4.38
2023-05-14T20:16:16.663Z,4.75
2023-05-14T20:18:44.075Z,4.28
2023-05-14T20:21:11.024Z,4.00
2023-05-14T20:23:37.731Z,4.38
2023-05-14T20:26:04.393Z,4.40
2023-05-14T20:28:30.958Z,4.53
2023-05-14T20:30:59.010Z,4.35
2023-05-14T20:33:29.382Z,4.68
2023-05-14T20:35:56.202Z,4.47
2023-05-14T20:38:22.861Z,4.45
2023-05-14T20:40:49.470Z,4.35
2023-05-14T20:43:16.230Z,4.13
2023-05-14T20:45:42.849Z,4.45
2023-05-14T20:48:11.471Z,4.18
2023-05-14T20:50:38.190Z,4.38
2023-05-14T20:53:04.749Z,4.72
2023-05-14T20:55:33.592Z,4.53
2023-05-14T20:58:00.217Z,4.38
2023-05-14T21:00:26.794Z,4.60
2023-05-14T21:02:53.513Z,4.07
2023-05-14T21:05:20.850Z,4.35
2023-05-14T21:07:47.427Z,4.38
2023-05-14T21:10:14.045Z,4.18
2023-05-14T21:12:42.106Z,4.30
2023-05-14T21:15:10.069Z,4.57
2023-05-14T21:17:36.644Z,4.10
2023-05-14T21:20:03.708Z,4.18
2023-05-14T21:22:30.315Z,4.38
2023-05-14T21:24:58.572Z,4.20
2023-05-14T21:27:26.367Z,4.22
2023-05-14T21:29:52.940Z,4.10
2023-05-14T21:32:22.317Z,4.40
2023-05-14T21:34:51.677Z,4.25
2023-05-14T21:37:18.243Z,4.75
2023-05-14T21:39:46.347Z,4.65
2023-05-14T21:42:12.886Z,4.10
2023-05-14T21:44:39.502Z,4.68
2023-05-14T21:47:06.090Z,4.18
2023-05-14T21:49:32.674Z,4.30
2023-05-14T21:51:59.240Z,4.53
2023-05-14T21:54:25.802Z,4.55
2023-05-14T21:56:52.351Z,4.43
2023-05-14T21:59:18.906Z,4.05
2023-05-14T22:02:05.666Z,4.43
2023-05-14T22:04:32.912Z,4.50
2023-05-14T22:06:59.494Z,4.30
2023-05-14T22:09:28.997Z,4.93
2023-05-14T22:11:55.552Z,4.40
2023-05-14T22:14:22.106Z,4.32
2023-05-14T22:16:48.807Z,4.60
2023-05-14T22:19:16.404Z,4.38
2023-05-14T22:21:43.091Z,3.90
2023-05-14T22:24:09.672Z,4.65
2023-05-14T22:26:38.720Z,3.90
2023-05-14T22:29:05.268Z,4.50
2023-05-14T22:31:34.509Z,4.70
2023-05-14T22:34:03.521Z,4.30
2023-05-14T22:36:30.087Z,5.43
2023-05-14T22:39:12.669Z,4.82
2023-05-14T22:41:39.972Z,4.70
2023-05-14T22:44:06.593Z,4.82
2023-05-14T22:46:33.210Z,4.45
2023-05-14T22:49:00.192Z,4.93
2023-05-14T22:51:26.809Z,4.90
2023-05-14T22:53:53.828Z,4.75
2023-05-14T22:56:21.693Z,4.15
2023-05-14T22:58:48.273Z,4.82
2023-05-14T23:01:14.937Z,4.55
2023-05-14T23:03:41.534Z,4.60
2023-05-14T23:06:08.142Z,4.90
2023-05-14T23:08:34.692Z,4.93
2023-05-14T23:11:03.975Z,4.55
2023-05-14T23:13:30.525Z,4.90
2023-05-14T23:15:57.094Z,4.72
2023-05-14T23:18:26.990Z,4.72
2023-05-14T23:20:56.529Z,4.65
2023-05-14T23:23:23.659Z,4.40
2023-05-14T23:25:50.676Z,4.75
2023-05-14T23:28:17.783Z,4.45
2023-05-14T23:30:45.129Z,5.30
2023-05-14T23:33:11.919Z,5.20
2023-05-14T23:35:38.958Z,5.20
2023-05-14T23:38:06.088Z,5.35
2023-05-14T23:40:32.898Z,4.80
2023-05-14T23:43:00.359Z,4.93
2023-05-14T23:45:30.545Z,5.07
2023-05-14T23:47:58.263Z,5.18
2023-05-14T23:50:25.263Z,5.25
2023-05-14T23:52:52.338Z,4.97
2023-05-14T23:55:19.252Z,5.10
2023-05-14T23:57:45.996Z,5.03
